Time;durP1;ratioP1;P1;durP2;ratioP2;P2;SDS_P1;SDS_P2;PMS_P1;PMS_P2;Temp;Humidity;BMP_temperature;BMP_pressure;BME280_temperature;BME280_humidity;BME280_pressure;Samples;Min_cycle;Max_cycle;Signal;HPM_P1;HPM_P2
2022/05/16 00:00:00;;;;;;;6.63;2.60;;;;;;;20.73;35.32;101331.53;4898284;28;123800;-75
2022/05/16 00:02:38;;;;;;;5.07;2.10;;;;;;;20.70;35.41;101326.41;4901637;28;114702;-75
2022/05/16 00:05:06;;;;;;;6.13;2.33;;;;;;;20.67;35.52;101315.03;4893596;28;113993;-75
2022/05/16 00:07:33;;;;;;;5.93;2.47;;;;;;;20.64;35.60;101315.25;4907235;28;123792;-75
2022/05/16 00:10:01;;;;;;;5.72;2.55;;;;;;;20.58;35.83;101316.56;4906785;28;122521;-75
2022/05/16 00:12:28;;;;;;;5.97;2.63;;;;;;;20.54;35.87;101310.56;4901563;28;113845;-75
2022/05/16 00:14:55;;;;;;;5.82;2.42;;;;;;;20.51;35.87;101315.34;4896260;28;113884;-75
2022/05/16 00:17:22;;;;;;;4.75;2.30;;;;;;;20.47;35.95;101308.50;4907905;28;124060;-75
2022/05/16 00:19:49;;;;;;;5.10;2.58;;;;;;;20.43;35.90;101295.28;4899346;28;124453;-75
2022/05/16 00:22:16;;;;;;;7.45;2.67;;;;;;;20.39;36.11;101296.50;4893977;28;119826;-75
2022/05/16 00:24:44;;;;;;;6.68;2.78;;;;;;;20.34;36.23;101306.78;4906046;28;118910;-75
2022/05/16 00:27:12;;;;;;;7.00;2.53;;;;;;;20.30;36.42;101291.84;4890396;28;123753;-75
2022/05/16 00:29:39;;;;;;;7.10;2.75;;;;;;;20.27;36.38;101294.81;4894855;28;123798;-75
2022/05/16 00:32:08;;;;;;;6.75;2.80;;;;;;;20.25;36.57;101299.44;4902593;28;120319;-75
2022/05/16 00:34:36;;;;;;;6.50;2.50;;;;;;;20.21;36.59;101292.56;4906259;28;120159;-75
2022/05/16 00:37:03;;;;;;;5.72;2.30;;;;;;;20.18;36.61;101285.63;4897613;28;125239;-75
2022/05/16 00:39:31;;;;;;;10.20;2.90;;;;;;;20.14;36.76;101280.63;4902058;28;123298;-75
2022/05/16 00:41:58;;;;;;;5.57;2.50;;;;;;;20.10;36.81;101284.50;4893604;28;119330;-75
2022/05/16 00:44:26;;;;;;;8.50;2.60;;;;;;;20.07;37.17;101279.38;4893721;28;118842;-75
2022/05/16 00:46:53;;;;;;;10.40;2.90;;;;;;;20.03;36.94;101284.97;4893542;28;124678;-75
2022/05/16 00:49:27;;;;;;;8.50;2.60;;;;;;;20.01;37.21;101281.56;4904282;28;124315;-75
2022/05/16 00:52:09;;;;;;;6.20;2.28;;;;;;;19.99;37.33;101278.13;4888199;28;119100;-75
2022/05/16 00:54:44;;;;;;;7.32;2.70;;;;;;;19.96;37.30;101278.38;4903713;28;119543;-75
2022/05/16 00:57:18;;;;;;;6.78;2.47;;;;;;;19.93;37.38;101273.25;4891482;28;123274;-75
2022/05/16 00:59:58;;;;;;;5.57;2.75;;;;;;;19.90;37.33;101268.09;4919883;28;123221;-75
2022/05/16 01:05:12;;;;;;;5.85;2.50;;;;;;;19.84;37.64;101263.19;4892167;28;119190;-75
2022/05/16 01:07:43;;;;;;;5.40;2.55;;;;;;;19.83;37.66;101264.16;4897264;28;124556;-75
2022/05/16 01:10:14;;;;;;;9.18;2.65;;;;;;;19.80;37.81;101256.34;4895174;28;123899;-75
2022/05/16 01:12:45;;;;;;;5.35;2.35;;;;;;;19.79;37.80;101260.84;4906039;28;119331;-75
2022/05/16 01:15:37;;;;;;;8.13;2.53;;;;;;;19.77;37.93;101261.97;4890944;28;118821;-75
2022/05/16 01:18:07;;;;;;;6.63;2.90;;;;;;;19.76;38.00;101265.59;4902843;28;124550;-76
2022/05/16 01:20:57;;;;;;;6.55;2.90;;;;;;;19.75;37.78;101269.28;4887676;28;123697;-75
2022/05/16 01:23:26;;;;;;;7.90;2.50;;;;;;;19.72;37.94;101275.75;4908702;28;119259;-75
2022/05/16 01:25:54;;;;;;;8.23;2.92;;;;;;;19.71;38.06;101270.47;4892475;28;119511;-76
2022/05/16 01:28:24;;;;;;;9.52;2.90;;;;;;;19.71;38.10;101267.78;4904314;28;123369;-75
2022/05/16 01:30:54;;;;;;;6.68;2.78;;;;;;;19.69;38.28;101269.72;4894344;28;124294;-75
2022/05/16 01:33:25;;;;;;;8.48;2.72;;;;;;;19.68;38.06;101276.06;4906963;28;119636;-75
2022/05/16 01:35:52;;;;;;;7.10;3.00;;;;;;;19.67;38.29;101261.78;4889779;28;120106;-75
2022/05/16 01:38:22;;;;;;;4.75;2.47;;;;;;;19.65;38.40;101253.84;4903489;28;123896;-75
2022/05/16 01:40:52;;;;;;;6.95;2.50;;;;;;;19.63;38.60;101261.16;4899451;28;124390;-75
2022/05/16 01:43:23;;;;;;;7.57;2.80;;;;;;;19.62;38.50;101259.44;4892440;28;119126;-75
2022/05/16 01:45:50;;;;;;;5.90;2.80;;;;;;;19.60;38.54;101258.69;4920444;28;118205;-75
2022/05/16 01:48:19;;;;;;;4.75;2.50;;;;;;;19.57;38.44;101250.88;4888387;28;124552;-75
2022/05/16 01:50:48;;;;;;;6.63;2.83;;;;;;;19.55;38.81;101244.78;4903145;28;123617;-75
2022/05/16 01:53:17;;;;;;;5.38;2.55;;;;;;;19.54;38.69;101247.56;4888670;28;120798;-75
2022/05/16 01:55:44;;;;;;;7.78;3.17;;;;;;;19.51;38.85;101248.66;4890461;28;119563;-75
2022/05/16 01:58:12;;;;;;;7.15;3.00;;;;;;;19.47;38.92;101249.88;4906210;28;123794;-75
2022/05/16 02:00:39;;;;;;;9.52;2.90;;;;;;;19.46;39.00;101248.16;4893005;28;123581;-75
2022/05/16 02:03:08;;;;;;;6.32;2.80;;;;;;;19.44;39.00;101239.38;4894930;28;96825;-75
2022/05/16 02:05:36;;;;;;;5.88;2.78;;;;;;;19.42;39.14;101241.28;4897389;28;119213;-76
2022/05/16 02:08:04;;;;;;;8.88;3.00;;;;;;;19.39;39.30;101233.47;4911750;28;124069;-75
2022/05/16 02:10:31;;;;;;;7.05;2.75;;;;;;;19.37;39.43;101227.38;4907044;28;123892;-75
2022/05/16 02:12:59;;;;;;;7.07;2.97;;;;;;;19.34;39.37;101232.97;4889424;28;120668;-75
2022/05/16 02:15:29;;;;;;;7.70;3.17;;;;;;;19.33;39.36;101225.91;4889062;28;119365;-75
2022/05/16 02:17:56;;;;;;;7.72;2.83;;;;;;;19.31;39.69;101217.06;4889077;28;124408;-75
2022/05/16 02:20:25;;;;;;;8.63;3.20;;;;;;;19.26;39.52;101215.59;4889906;28;124090;-76
2022/05/16 02:25:43;;;;;;;6.25;2.80;;;;;;;19.21;39.88;101217.81;4903496;28;118188;-75
2022/05/16 02:28:14;;;;;;;5.97;3.25;;;;;;;19.20;39.98;101220.59;4888166;28;124000;-75
2022/05/16 02:30:45;;;;;;;7.03;3.30;;;;;;;19.21;39.81;101223.16;4904696;28;124027;-75
2022/05/16 02:33:14;;;;;;;7.63;2.97;;;;;;;19.23;39.95;101221.22;4896713;28;119339;-75
2022/05/16 02:35:43;;;;;;;7.00;2.97;;;;;;;19.25;39.91;101224.66;4903257;28;118237;-75
2022/05/16 02:38:12;;;;;;;8.35;3.13;;;;;;;19.26;40.07;101215.59;4890681;28;124733;-75
2022/05/16 02:40:39;;;;;;;11.30;3.38;;;;;;;19.26;40.12;101223.66;4887864;28;124418;-75
2022/05/16 02:43:07;;;;;;;5.72;3.20;;;;;;;19.24;40.14;101206.81;4888609;28;119284;-75
2022/05/16 02:45:35;;;;;;;9.60;3.47;;;;;;;19.23;40.14;101215.84;4904867;28;116785;-76
2022/05/16 02:48:03;;;;;;;9.18;3.30;;;;;;;19.21;39.97;101212.44;4894984;28;124002;-75
2022/05/16 02:50:30;;;;;;;7.45;3.33;;;;;;;19.17;40.18;101210.91;4902658;28;124210;-75
2022/05/16 02:52:58;;;;;;;10.30;3.58;;;;;;;19.14;40.29;101211.16;4899305;28;118452;-75
2022/05/16 02:55:25;;;;;;;11.60;3.40;;;;;;;19.12;40.52;101206.88;4891166;28;119284;-75
2022/05/16 02:57:52;;;;;;;6.95;3.55;;;;;;;19.08;40.52;101200.91;4903242;28;123852;-75
2022/05/16 03:00:20;;;;;;;7.80;3.95;;;;;;;19.04;40.67;101204.75;4890738;28;123666;-75
2022/05/16 03:02:47;;;;;;;11.10;3.78;;;;;;;18.99;40.64;101201.59;4902575;28;120393;-75
2022/05/16 03:05:15;;;;;;;9.35;3.58;;;;;;;18.96;40.73;101194.59;4888189;28;119912;-75
2022/05/16 03:07:43;;;;;;;5.50;3.58;;;;;;;18.91;40.88;101187.88;4902633;28;124148;-75
2022/05/16 03:10:15;;;;;;;7.35;3.47;;;;;;;18.90;41.07;101191.53;4886894;28;124213;-75
2022/05/16 03:12:44;;;;;;;6.30;3.42;;;;;;;18.86;40.84;101186.38;4892681;28;119161;-75
2022/05/16 03:15:14;;;;;;;6.10;3.70;;;;;;;18.83;41.01;101175.88;4893654;28;119164;-75
2022/05/16 03:17:42;;;;;;;8.20;3.50;;;;;;;18.82;41.25;101179.53;4891222;28;124385;-75
2022/05/16 03:20:12;;;;;;;8.40;3.35;;;;;;;18.79;41.33;101174.34;4894533;28;123949;-74
2022/05/16 03:22:41;;;;;;;10.02;3.63;;;;;;;18.77;41.41;101175.47;4896705;28;120360;-74
2022/05/16 03:25:09;;;;;;;7.43;3.55;;;;;;;18.74;41.32;101181.91;4896132;28;119184;-75
2022/05/16 03:27:37;;;;;;;8.63;3.83;;;;;;;18.73;41.78;101172.13;4910938;28;123566;-75
2022/05/16 03:30:07;;;;;;;8.45;3.58;;;;;;;18.71;41.66;101171.41;4891668;28;123461;-75
2022/05/16 03:32:34;;;;;;;9.38;3.40;;;;;;;18.71;41.53;101176.78;4906124;28;119685;-75
2022/05/16 03:35:01;;;;;;;8.20;3.55;;;;;;;18.70;41.63;101174.19;4905654;28;119280;-74
2022/05/16 03:37:28;;;;;;;7.85;3.67;;;;;;;18.70;41.86;101168.81;4890782;28;125245;-75
2022/05/16 03:42:41;;;;;;;9.95;3.72;;;;;;;18.66;42.00;101173.56;4907934;28;118720;-74
2022/05/16 03:45:10;;;;;;;7.32;3.50;;;;;;;18.66;41.92;101176.25;4913593;28;119192;-75
2022/05/16 03:47:37;;;;;;;9.43;3.50;;;;;;;18.66;41.93;101178.94;4904923;28;124332;-75
2022/05/16 03:50:05;;;;;;;8.20;3.70;;;;;;;18.65;42.16;101174.53;4893038;28;124467;-75
2022/05/16 03:52:33;;;;;;;7.28;3.25;;;;;;;18.64;42.06;101176.34;4904875;28;120346;-75
2022/05/16 03:55:00;;;;;;;7.55;3.65;;;;;;;18.66;42.22;101176.25;4905390;28;120072;-75
2022/05/16 03:57:27;;;;;;;6.88;3.58;;;;;;;18.64;42.06;101179.03;4896547;28;124098;-75
2022/05/16 03:59:54;;;;;;;9.15;3.83;;;;;;;18.65;42.07;101174.53;4905081;28;124086;-75
2022/05/16 04:02:22;;;;;;;8.50;3.72;;;;;;;18.65;42.36;101177.22;4906830;28;118085;-74
2022/05/16 04:04:49;;;;;;;9.48;3.72;;;;;;;18.66;42.33;101184.28;4903297;28;118832;-75
2022/05/16 04:07:17;;;;;;;9.75;3.80;;;;;;;18.67;42.33;101186.03;4906458;28;123742;-74
2022/05/16 04:09:44;;;;;;;10.50;4.00;;;;;;;18.67;42.26;101177.97;4896306;28;122945;-74
2022/05/16 04:12:11;;;;;;;9.10;4.25;;;;;;;18.67;42.46;101186.03;4905558;28;119614;-75
2022/05/16 04:14:38;;;;;;;10.15;3.97;;;;;;;18.66;42.42;101178.94;4896011;28;119294;-75
2022/05/16 04:17:05;;;;;;;9.13;4.13;;;;;;;18.65;42.64;101182.59;4898209;28;124823;-75
2022/05/16 04:19:33;;;;;;;6.70;3.63;;;;;;;18.62;42.61;101177.44;4908668;28;123503;-74
2022/05/16 04:22:00;;;;;;;11.68;4.00;;;;;;;18.61;42.79;101181.09;4919016;28;119068;-75
2022/05/16 04:24:27;;;;;;;9.38;4.78;;;;;;;18.59;42.79;101183.03;4908986;28;119469;-75
2022/05/16 04:26:54;;;;;;;7.82;4.10;;;;;;;18.57;43.00;101174.22;4896022;28;123861;-75
2022/05/16 04:29:21;;;;;;;11.70;4.43;;;;;;;18.57;42.95;101174.22;4898657;28;123772;-75
2022/05/16 04:31:50;;;;;;;9.77;4.35;;;;;;;18.58;43.17;101170.59;4901345;28;119260;-75
2022/05/16 04:34:17;;;;;;;10.38;4.20;;;;;;;18.57;43.17;101167.06;4879829;28;119600;-75
2022/05/16 04:36:45;;;;;;;8.93;4.28;;;;;;;18.58;43.31;101175.97;4900851;28;125002;-75
2022/05/16 04:39:12;;;;;;;7.90;3.92;;;;;;;18.58;43.34;101166.09;4897520;28;123756;-75
2022/05/16 04:44:25;;;;;;;10.05;4.50;;;;;;;18.65;43.63;101166.50;4891110;28;119570;-75
2022/05/16 04:46:52;;;;;;;9.57;3.92;;;;;;;18.75;43.84;101178.25;4915530;28;123047;-75
2022/05/16 04:49:19;;;;;;;7.32;4.13;;;;;;;18.84;43.81;101188.34;4918760;28;122727;-75
2022/05/16 04:51:46;;;;;;;11.10;4.47;;;;;;;18.95;43.67;101184.84;4898659;28;119328;-75
2022/05/16 04:54:13;;;;;;;7.05;4.20;;;;;;;19.03;43.50;101187.81;4900027;28;119991;-77
2022/05/16 04:56:40;;;;;;;9.73;4.30;;;;;;;19.11;43.55;101184.53;4914066;28;124138;-76
2022/05/16 04:59:08;;;;;;;11.48;4.65;;;;;;;19.19;43.50;101187.53;4903505;28;123179;-76
2022/05/16 05:01:35;;;;;;;10.77;4.05;;;;;;;19.23;43.55;101186.31;4909721;28;117226;-75
2022/05/16 05:04:03;;;;;;;12.57;4.22;;;;;;;19.29;43.33;101192.16;4900806;28;118765;-75
2022/05/16 05:06:30;;;;;;;9.00;4.30;;;;;;;19.35;43.48;101189.03;4914889;28;123955;-75
2022/05/16 05:08:57;;;;;;;8.60;3.60;;;;;;;19.41;43.45;101191.25;4897960;28;123293;-75
2022/05/16 05:16:56;;;;;;;9.98;4.00;;;;;;;19.59;43.22;101197.88;4898377;28;124081;-75
2022/05/16 05:19:23;;;;;;;7.82;3.97;;;;;;;19.66;43.23;101206.31;4906104;28;123070;-75
2022/05/16 05:21:50;;;;;;;7.70;3.95;;;;;;;19.71;43.17;101197.91;4901966;28;119165;-75
2022/05/16 05:24:17;;;;;;;8.43;4.20;;;;;;;19.77;43.15;101197.44;4904018;28;118859;-75
2022/05/16 05:26:44;;;;;;;8.00;3.97;;;;;;;19.81;43.15;101198.91;4914308;28;124596;-76
2022/05/16 05:29:11;;;;;;;7.35;3.85;;;;;;;19.84;43.17;101198.69;4907569;28;123123;-75
2022/05/16 05:31:41;;;;;;;7.50;3.83;;;;;;;19.89;43.16;101191.13;4896835;28;119397;-76
2022/05/16 05:34:11;;;;;;;7.10;4.30;;;;;;;19.93;43.22;101192.59;4914625;28;120108;-75
2022/05/16 05:36:39;;;;;;;7.63;3.88;;;;;;;19.99;43.30;101192.09;4902370;28;125114;-75
2022/05/16 05:39:06;;;;;;;7.50;4.45;;;;;;;20.05;43.28;101189.91;4922741;28;122970;-75
2022/05/16 05:41:34;;;;;;;10.90;4.15;;;;;;;20.10;43.33;101182.31;4920877;28;118479;-75
2022/05/16 05:44:01;;;;;;;11.50;4.82;;;;;;;20.16;43.31;101192.59;4902820;28;118913;-74
2022/05/16 05:46:37;;;;;;;7.32;4.60;;;;;;;20.22;43.56;101197.47;4922038;28;123374;-74
2022/05/16 05:49:05;;;;;;;10.05;4.22;;;;;;;20.33;43.52;101194.78;4905905;28;124739;-74
2022/05/16 05:51:33;;;;;;;9.00;4.50;;;;;;;20.44;43.32;101201.97;4896430;28;118169;-75
2022/05/16 05:54:00;;;;;;;6.75;4.50;;;;;;;20.56;43.53;101194.75;4915660;28;117948;-74
2022/05/16 05:56:28;;;;;;;11.27;4.57;;;;;;;20.67;43.24;101197.44;4900173;28;124442;-75
2022/05/16 05:58:55;;;;;;;8.65;4.30;;;;;;;20.76;43.30;101196.69;4910590;28;124487;-75
2022/05/16 06:01:23;;;;;;;7.32;4.47;;;;;;;20.87;43.35;101197.63;4891168;28;119433;-75
2022/05/16 06:03:51;;;;;;;8.85;4.53;;;;;;;20.99;43.07;101196.59;4898910;28;119881;-75
2022/05/16 06:06:18;;;;;;;10.23;4.47;;;;;;;21.09;42.81;101194.84;4874595;28;124376;-74
2022/05/16 06:08:45;;;;;;;7.82;4.68;;;;;;;21.17;42.93;101195.06;4888648;28;124533;-75
2022/05/16 06:11:12;;;;;;;8.88;4.55;;;;;;;21.25;43.01;101180.06;4888344;28;120214;-75
2022/05/16 06:13:39;;;;;;;8.48;4.47;;;;;;;21.30;43.17;101177.84;4919416;28;118658;-75
2022/05/16 06:16:08;;;;;;;7.80;4.88;;;;;;;21.36;43.30;101188.09;4903278;28;124296;-75
2022/05/16 06:18:36;;;;;;;9.35;4.70;;;;;;;21.41;43.52;101190.41;4903035;28;123072;-75
2022/05/16 06:21:04;;;;;;;10.15;4.90;;;;;;;21.46;43.65;101202.53;4900315;28;118591;-75
2022/05/16 06:23:31;;;;;;;8.95;5.00;;;;;;;21.52;43.94;101199.31;4900539;28;120807;-76
2022/05/16 06:26:00;;;;;;;7.15;4.55;;;;;;;21.61;43.88;101213.00;4885169;28;124147;-75
2022/05/16 06:28:28;;;;;;;7.32;4.60;;;;;;;21.67;43.90;101212.47;4890925;28;124365;-75
2022/05/16 06:30:56;;;;;;;7.28;4.40;;;;;;;21.72;43.38;101215.63;4902096;28;117304;-76
2022/05/16 06:33:28;;;;;;;8.65;4.55;;;;;;;21.74;43.98;101224.44;4912058;28;118457;-76
2022/05/16 06:35:57;;;;;;;9.63;4.80;;;;;;;21.78;44.06;101225.88;4894676;28;124190;-75
2022/05/16 06:38:28;;;;;;;11.25;4.65;;;;;;;21.82;44.28;101226.47;4894386;28;123997;-75
2022/05/16 06:40:56;;;;;;;5.95;4.07;;;;;;;21.85;44.21;101232.47;4906263;28;118470;-76
2022/05/16 06:43:26;;;;;;;5.63;3.88;;;;;;;21.92;44.02;101239.00;4908808;28;118726;-76
2022/05/16 06:45:54;;;;;;;6.93;4.50;;;;;;;21.96;44.44;101245.84;4888056;28;123293;-75
2022/05/16 06:48:21;;;;;;;7.15;4.40;;;;;;;22.01;44.50;101248.13;4902616;28;123670;-75
2022/05/16 06:50:50;;;;;;;8.73;4.47;;;;;;;22.05;44.28;101232.53;4905377;28;120015;-76
2022/05/16 06:53:27;;;;;;;8.93;4.50;;;;;;;22.07;44.43;101244.06;4908492;28;118892;-75
2022/05/16 06:55:55;;;;;;;7.38;4.63;;;;;;;22.09;44.38;101245.63;4890637;28;123640;-75
2022/05/16 06:58:24;;;;;;;12.55;4.82;;;;;;;22.14;44.53;101247.94;4890483;28;122929;-76
2022/05/16 07:00:51;;;;;;;15.35;5.68;;;;;;;22.17;44.50;101253.06;4890395;28;119297;-76
2022/05/16 07:03:18;;;;;;;17.02;6.05;;;;;;;22.23;44.46;101255.22;4909664;28;118217;-77
2022/05/16 07:05:48;;;;;;;17.30;4.93;;;;;;;22.29;44.51;101252.00;4908951;28;124107;-75
2022/05/16 07:08:17;;;;;;;13.63;5.68;;;;;;;22.38;44.29;101265.66;4903848;28;123286;-76
2022/05/16 07:10:46;;;;;;;16.30;5.65;;;;;;;22.48;44.43;101266.56;4886288;28;119886;-76
2022/05/16 07:13:20;;;;;;;12.30;5.38;;;;;;;22.63;44.59;101259.81;4904260;28;119037;-75
2022/05/16 07:15:47;;;;;;;8.68;5.10;;;;;;;22.79;44.02;101258.41;4904391;28;123488;-76
2022/05/16 07:18:14;;;;;;;8.15;4.80;;;;;;;22.92;43.71;101264.41;4891086;28;123968;-76
2022/05/16 07:20:41;;;;;;;6.75;4.55;;;;;;;23.03;43.65;101267.03;4900697;28;120122;-75
2022/05/16 07:23:09;;;;;;;6.75;4.45;;;;;;;23.15;43.59;101253.38;4897666;28;119266;-76
2022/05/16 07:28:23;;;;;;;10.75;4.68;;;;;;;23.36;43.00;101256.81;4893366;28;122131;-75
2022/05/16 07:30:51;;;;;;;6.65;4.20;;;;;;;23.41;43.11;101254.50;4897975;28;119141;-75
2022/05/16 07:33:19;;;;;;;8.23;4.50;;;;;;;23.48;42.81;101261.06;4894717;28;118868;-76
2022/05/16 07:35:50;;;;;;;9.70;4.53;;;;;;;23.56;42.51;101273.03;4901775;28;122324;-76
2022/05/16 07:38:28;;;;;;;9.00;4.45;;;;;;;23.63;42.66;101274.16;4906656;28;123651;-76
2022/05/16 07:40:56;;;;;;;6.43;3.90;;;;;;;23.70;42.73;101275.28;4869552;28;118734;-75
2022/05/16 07:43:26;;;;;;;6.43;3.83;;;;;;;23.78;42.33;101267.31;4887896;28;118734;-76
2022/05/16 07:45:53;;;;;;;6.57;3.92;;;;;;;23.84;42.26;101266.75;4902677;28;125168;-76
2022/05/16 07:48:21;;;;;;;5.18;3.58;;;;;;;23.94;42.25;101276.69;4902428;28;123758;-75
2022/05/16 07:50:48;;;;;;;6.43;3.75;;;;;;;24.02;42.05;101274.97;4904893;28;119568;-75
2022/05/16 07:53:17;;;;;;;6.05;3.78;;;;;;;24.12;41.53;101285.78;4890500;28;118860;-75
2022/05/16 07:55:55;;;;;;;9.07;3.83;;;;;;;24.20;41.99;101282.31;4890690;28;122966;-76
2022/05/16 07:58:25;;;;;;;8.68;3.60;;;;;;;24.29;41.48;101290.41;4920227;28;123879;-76
2022/05/16 08:00:54;;;;;;;8.52;3.42;;;;;;;24.37;41.27;101289.66;4905560;28;120397;-76
2022/05/16 08:03:24;;;;;;;8.15;3.60;;;;;;;24.42;40.87;101286.53;4901605;28;119613;-76
2022/05/16 08:05:51;;;;;;;8.75;3.58;;;;;;;24.41;40.97;101279.38;4890162;28;123813;-76
2022/05/16 08:11:04;;;;;;;6.90;3.50;;;;;;;24.46;40.92;101285.22;4889840;28;118970;-76
2022/05/16 08:13:32;;;;;;;8.80;4.15;;;;;;;24.52;40.67;101286.50;4906121;28;118910;-76
2022/05/16 08:15:59;;;;;;;5.88;3.95;;;;;;;24.58;41.04;101292.19;4906476;28;124765;-76
2022/05/16 08:18:26;;;;;;;8.48;4.13;;;;;;;24.64;40.69;101296.16;4901502;28;123763;-77
2022/05/16 08:20:55;;;;;;;7.47;3.55;;;;;;;24.68;40.54;101293.00;4894494;28;119834;-76
2022/05/16 08:23:26;;;;;;;7.28;4.20;;;;;;;24.72;40.80;101298.13;4896418;28;119094;-76
2022/05/16 08:25:55;;;;;;;7.07;4.45;;;;;;;24.75;40.84;101300.50;4883556;28;124409;-77
2022/05/16 08:28:23;;;;;;;11.20;4.18;;;;;;;24.79;40.40;101310.91;4900500;28;124575;-76
2022/05/16 08:30:50;;;;;;;7.22;4.03;;;;;;;24.82;40.72;101304.31;4903384;28;119105;-77
2022/05/16 08:33:18;;;;;;;12.95;4.13;;;;;;;24.85;40.53;101312.16;4891383;28;119872;-77
2022/05/16 08:39:51;;;;;;;11.40;4.38;;;;;;;24.90;40.88;101317.97;4893671;28;123989;-76
2022/05/16 08:41:28;;;;;;;9.45;4.13;;;;;;;24.98;40.58;101323.50;4894840;28;120063;-76
2022/05/16 08:44:09;;;;;;;7.47;4.00;;;;;;;25.03;40.40;101315.75;4909688;28;118165;-76
2022/05/16 08:47:24;;;;;;;9.65;4.50;;;;;;;25.10;40.19;101323.28;4902508;28;124036;-76
2022/05/16 08:50:01;;;;;;;14.70;5.63;;;;;;;25.13;39.87;101317.53;4879725;28;124047;-76
2022/05/16 08:52:51;;;;;;;10.85;4.60;;;;;;;25.15;40.06;101318.25;4903572;28;119504;-77
2022/05/16 08:55:30;;;;;;;6.65;4.07;;;;;;;25.20;40.28;101324.94;4892487;28;120875;-76
2022/05/16 08:58:23;;;;;;;7.10;3.72;;;;;;;25.29;40.24;101322.31;4891165;28;124286;-76
2022/05/16 09:00:54;;;;;;;5.70;3.63;;;;;;;25.36;40.61;101318.84;4908359;28;125466;-76
2022/05/16 09:03:46;;;;;;;6.88;4.03;;;;;;;25.43;40.33;101325.34;4891909;28;119083;-77
2022/05/16 09:06:21;;;;;;;8.15;4.13;;;;;;;25.52;40.27;101328.97;4904046;28;120404;-76
2022/05/16 09:09:12;;;;;;;7.25;4.25;;;;;;;25.66;40.33;101324.03;4893575;28;124662;-76
2022/05/16 09:11:46;;;;;;;7.28;4.28;;;;;;;25.81;40.35;101317.88;4896244;28;124003;-76
2022/05/16 09:14:32;;;;;;;9.45;4.40;;;;;;;25.97;40.20;101322.59;4894171;28;119624;-77
2022/05/16 09:17:14;;;;;;;8.15;4.10;;;;;;;26.11;40.04;101326.63;4909260;28;118850;-77
2022/05/16 09:20:06;;;;;;;8.90;4.30;;;;;;;26.23;39.83;101319.91;4901235;28;122272;-76
2022/05/16 09:22:43;;;;;;;6.40;4.47;;;;;;;26.38;39.61;101311.19;4904172;28;123519;-77
2022/05/16 09:25:23;;;;;;;6.53;4.18;;;;;;;26.47;39.61;101317.50;4889402;28;119434;-76
2022/05/16 09:30:48;;;;;;;7.82;4.38;;;;;;;26.68;39.90;101311.69;4890765;28;123994;-76
2022/05/16 09:33:20;;;;;;;6.22;4.30;;;;;;;26.81;39.55;101325.69;4889761;28;124600;-75
2022/05/16 09:36:05;;;;;;;5.78;4.57;;;;;;;26.95;39.43;101316.88;4905368;28;118968;-75
2022/05/16 09:38:32;;;;;;;6.43;4.30;;;;;;;27.08;39.29;101313.69;4888708;28;119517;-75
2022/05/16 09:40:59;;;;;;;9.48;4.70;;;;;;;27.18;38.92;101321.69;4888059;28;124025;-77
2022/05/16 09:43:31;;;;;;;9.52;4.80;;;;;;;27.27;39.07;101320.72;4904682;28;124819;-76
2022/05/16 09:46:05;;;;;;;7.25;4.85;;;;;;;27.38;38.84;101312.25;4893404;28;120141;-77
2022/05/16 09:48:32;;;;;;;11.70;4.13;;;;;;;27.53;39.08;101317.03;4907543;28;119817;-78
2022/05/16 09:51:05;;;;;;;6.75;4.03;;;;;;;27.73;39.11;101310.22;4908181;28;123771;-76
2022/05/16 09:53:36;;;;;;;7.80;3.88;;;;;;;27.95;39.29;101302.41;4890656;28;123688;-78
2022/05/16 09:56:09;;;;;;;6.93;3.92;;;;;;;28.14;38.93;101302.06;4924008;28;119104;-76
2022/05/16 09:58:50;;;;;;;7.40;3.92;;;;;;;28.35;38.97;101303.38;4908587;28;118903;-76
2022/05/16 10:01:35;;;;;;;6.15;3.53;;;;;;;28.53;38.41;101306.72;4920885;28;123853;-76
2022/05/16 10:04:12;;;;;;;7.25;3.60;;;;;;;28.70;37.91;101306.66;4907860;28;122909;-76
2022/05/16 10:06:44;;;;;;;8.18;3.35;;;;;;;28.86;37.87;101312.06;4908661;28;119174;-75
2022/05/16 10:09:16;;;;;;;6.72;4.60;;;;;;;29.02;37.41;101304.81;4907912;28;118606;-75
2022/05/16 10:11:50;;;;;;;8.07;4.07;;;;;;;29.16;38.20;101312.25;4902302;28;124640;-79
2022/05/16 10:14:18;;;;;;;6.00;3.05;;;;;;;29.37;37.71;101324.41;4904361;28;123987;-76
2022/05/16 10:16:49;;;;;;;5.72;2.75;;;;;;;29.57;37.93;101322.03;4904852;28;118125;-76
2022/05/16 10:19:22;;;;;;;4.18;2.80;;;;;;;29.81;37.56;101321.84;4888400;28;118756;-76
2022/05/16 10:21:53;;;;;;;9.65;3.80;;;;;;;30.01;36.77;101316.72;4886723;28;123497;-76
2022/05/16 10:24:23;;;;;;;6.10;3.35;;;;;;;30.12;36.11;101334.56;4905881;28;123736;-77
2022/05/16 10:26:53;;;;;;;6.05;3.72;;;;;;;30.20;35.78;101319.97;4909952;28;119701;-77
2022/05/16 10:29:25;;;;;;;7.40;3.13;;;;;;;30.30;36.29;101320.50;4909032;28;118667;-77
2022/05/16 10:34:53;;;;;;;8.50;3.58;;;;;;;30.57;36.24;101331.84;4906889;28;125882;-75
2022/05/16 10:37:21;;;;;;;7.88;3.88;;;;;;;30.68;35.51;101323.16;4921575;28;120846;-76
2022/05/16 10:39:56;;;;;;;6.75;3.45;;;;;;;30.77;35.08;101330.22;4897782;28;120029;-76
2022/05/16 10:42:26;;;;;;;;;;;;;;;30.72;35.54;101321.75;4906964;28;124839;-76
2022/05/16 10:45:21;;;;;;;4.28;3.25;;;;;;;30.77;34.92;101332.97;4888725;28;124834;-76
2022/05/16 10:47:55;;;;;;;4.22;2.97;;;;;;;30.78;34.71;101334.69;4889233;28;120614;-77
2022/05/16 10:50:30;;;;;;;4.60;2.88;;;;;;;30.83;34.64;101337.66;4894466;28;117666;-77
2022/05/16 10:53:12;;;;;;;5.82;3.60;;;;;;;30.89;35.06;101340.69;4890735;28;123870;-77
2022/05/16 10:56:03;;;;;;;4.20;2.28;;;;;;;30.92;34.54;101340.34;4904073;28;123370;-76
2022/05/16 10:58:43;;;;;;;4.53;1.80;;;;;;;30.90;34.37;101343.28;4886215;28;118542;-76
2022/05/16 11:01:16;;;;;;;3.65;2.10;;;;;;;30.85;34.04;101346.56;4884088;28;119224;-77
2022/05/16 11:03:53;;;;;;;4.70;2.10;;;;;;;30.72;33.98;101345.53;4885442;28;123861;-76
2022/05/16 11:06:39;;;;;;;4.15;1.70;;;;;;;30.60;34.25;101345.16;4886580;28;123878;-76
2022/05/16 11:09:25;;;;;;;4.35;1.83;;;;;;;30.43;34.42;101348.06;4902500;28;118480;-76
2022/05/16 11:12:05;;;;;;;3.28;1.90;;;;;;;30.28;35.26;101371.78;4885632;28;119447;-77
2022/05/16 11:15:00;;;;;;;6.50;2.05;;;;;;;29.96;35.92;101379.25;4905844;28;123324;-77
2022/05/16 11:17:32;;;;;;;;;;;;;;;29.56;35.71;101394.88;4899472;28;124359;-75
2022/05/16 11:20:09;;;;;;;5.63;2.67;;;;;;;29.17;36.83;101416.78;4905027;28;118684;-75
2022/05/16 11:22:56;;;;;;;7.50;3.65;;;;;;;28.70;38.06;101426.59;4922651;28;118986;-75
2022/05/16 11:25:56;;;;;;;6.80;3.25;;;;;;;28.25;39.15;101422.56;4905307;28;123343;-76
2022/05/16 11:28:32;;;;;;;5.13;3.10;;;;;;;27.89;40.39;101428.34;4902162;28;125125;-76
2022/05/16 11:31:05;;;;;;;7.93;3.58;;;;;;;27.69;41.37;101434.06;4902663;28;121174;-75
2022/05/16 11:33:52;;;;;;;8.00;3.72;;;;;;;27.57;41.96;101435.41;4921884;28;119373;-76
2022/05/16 11:36:29;;;;;;;5.85;3.75;;;;;;;27.51;42.85;101425.19;4917223;28;123704;-75
2022/05/16 11:39:07;;;;;;;7.47;3.88;;;;;;;27.51;43.45;101419.75;4902033;28;123607;-75
2022/05/16 11:41:56;;;;;;;6.18;4.38;;;;;;;27.52;43.62;101418.72;4923479;28;119613;-76
2022/05/16 11:44:59;;;;;;;5.88;4.15;;;;;;;27.58;43.70;101401.75;4910843;28;119163;-76
2022/05/16 11:47:55;;;;;;;8.93;3.83;;;;;;;27.68;43.82;101405.16;4909153;28;124080;-75
2022/05/16 11:50:51;;;;;;;5.38;3.53;;;;;;;27.84;43.47;101401.59;4897424;28;123797;-75
2022/05/16 11:53:22;;;;;;;7.22;3.50;;;;;;;27.98;42.97;101411.00;4900176;28;119839;-74
2022/05/16 12:01:44;;;;;;;6.85;3.58;;;;;;;28.07;41.70;101434.50;4902101;28;123682;-75
2022/05/16 12:04:15;;;;;;;7.00;3.40;;;;;;;28.07;41.59;101426.31;4891718;28;118946;-76
2022/05/16 12:06:52;;;;;;;5.03;3.50;;;;;;;28.08;41.16;101444.34;4909528;28;119249;-76
2022/05/16 12:09:30;;;;;;;7.15;3.30;;;;;;;28.06;41.19;101451.84;4909559;28;123882;-76
2022/05/16 12:12:04;;;;;;;6.55;3.53;;;;;;;27.99;40.91;101450.84;4902489;28;124998;-77